createdAt,value
2023-02-25T00:02:15.157Z,2.80
2023-02-25T00:04:43.335Z,2.00
2023-02-25T00:07:11.968Z,2.10
2023-02-25T00:09:41.465Z,2.40
2023-02-25T00:12:10.216Z,2.87
2023-02-25T00:14:38.267Z,3.00
2023-02-25T00:17:06.364Z,2.57
2023-02-25T00:19:34.482Z,2.93
2023-02-25T00:22:02.576Z,2.70
2023-02-25T00:24:30.679Z,2.50
2023-02-25T00:27:00.532Z,2.37
2023-02-25T00:29:28.600Z,2.83
2023-02-25T00:31:56.841Z,2.30
2023-02-25T00:34:26.145Z,2.50
2023-02-25T00:36:54.616Z,2.57
2023-02-25T00:39:24.034Z,2.13
2023-02-25T00:41:52.105Z,2.47
2023-02-25T00:44:21.532Z,2.40
2023-02-25T00:46:49.648Z,2.40
2023-02-25T00:49:30.590Z,2.50
2023-02-25T00:52:00.309Z,3.50
2023-02-25T00:54:28.831Z,2.50
2023-02-25T00:56:57.230Z,2.17
2023-02-25T00:59:26.850Z,4.00
2023-02-25T01:01:55.121Z,3.00
2023-02-25T01:04:23.372Z,2.37
2023-02-25T01:06:51.897Z,2.83
2023-02-25T01:09:20.170Z,2.70
2023-02-25T01:11:48.979Z,3.60
2023-02-25T01:14:19.930Z,2.40
2023-02-25T01:16:51.625Z,2.60
2023-02-25T01:19:22.837Z,2.77
2023-02-25T01:21:52.919Z,2.60
2023-02-25T01:24:23.584Z,2.60
2023-02-25T01:26:53.798Z,2.40
2023-02-25T01:29:23.932Z,2.33
2023-02-25T01:31:55.493Z,3.10
2023-02-25T01:34:25.032Z,3.00
2023-02-25T01:36:53.430Z,2.50
2023-02-25T01:39:22.802Z,2.70
2023-02-25T01:41:53.776Z,2.93
2023-02-25T01:44:23.595Z,3.20
2023-02-25T01:46:55.864Z,2.90
2023-02-25T01:49:29.177Z,2.93
2023-02-25T01:52:02.765Z,2.60
2023-02-25T01:54:32.417Z,2.43
2023-02-25T01:57:00.948Z,4.03
2023-02-25T01:59:30.762Z,2.67
2023-02-25T02:02:00.569Z,2.73
2023-02-25T02:04:29.596Z,2.73
2023-02-25T02:06:58.855Z,2.90
2023-02-25T02:09:29.466Z,3.43
2023-02-25T02:11:58.367Z,2.93
2023-02-25T02:14:29.958Z,2.90
2023-02-25T02:17:14.486Z,2.33
2023-02-25T02:19:58.725Z,2.83
2023-02-25T02:22:35.634Z,2.90
2023-02-25T02:25:33.071Z,3.13
2023-02-25T02:28:28.745Z,3.00
2023-02-25T02:31:47.887Z,3.43
2023-02-25T02:34:32.326Z,3.37
2023-02-25T02:37:10.991Z,2.10
2023-02-25T02:39:51.442Z,2.90
2023-02-25T02:42:31.610Z,2.50
2023-02-25T02:45:05.804Z,2.90
2023-02-25T02:47:37.756Z,3.63
2023-02-25T02:50:11.895Z,2.50
2023-02-25T02:52:44.439Z,2.70
2023-02-25T02:55:22.153Z,2.77
2023-02-25T02:57:56.627Z,2.30
2023-02-25T03:00:28.597Z,2.70
2023-02-25T03:03:01.706Z,3.23
2023-02-25T03:05:34.383Z,2.70
2023-02-25T03:08:09.312Z,3.30
2023-02-25T03:10:37.935Z,2.27
2023-02-25T03:13:07.122Z,2.53
2023-02-25T03:15:36.322Z,2.60
2023-02-25T03:18:09.000Z,2.00
2023-02-25T03:20:42.731Z,2.67
2023-02-25T03:23:16.558Z,1.90
2023-02-25T03:25:48.291Z,2.30
2023-02-25T03:28:26.745Z,1.77
2023-02-25T03:31:02.995Z,1.80
2023-02-25T03:33:37.349Z,2.00
2023-02-25T03:36:14.062Z,1.60
2023-02-25T03:38:51.224Z,1.90
2023-02-25T03:41:21.319Z,2.10
2023-02-25T03:43:53.769Z,1.80
2023-02-25T03:46:23.856Z,2.23
2023-02-25T03:48:55.287Z,2.00
2023-02-25T03:51:30.319Z,2.63
2023-02-25T03:53:58.443Z,1.93
2023-02-25T03:56:42.651Z,2.20
2023-02-25T03:59:11.046Z,1.97
2023-02-25T04:01:40.761Z,2.43
2023-02-25T04:04:09.159Z,1.57
2023-02-25T04:06:38.703Z,1.93
2023-02-25T04:09:06.920Z,1.60
2023-02-25T04:11:36.118Z,2.23
2023-02-25T04:14:04.613Z,2.10
2023-02-25T04:16:33.579Z,2.13
2023-02-25T04:19:03.399Z,2.70
2023-02-25T04:21:35.111Z,2.40
2023-02-25T04:24:06.979Z,2.43
2023-02-25T04:26:35.611Z,2.50
2023-02-25T04:29:04.577Z,2.47
2023-02-25T04:31:32.842Z,2.53
2023-02-25T04:34:01.008Z,1.80
2023-02-25T04:36:31.377Z,2.67
2023-02-25T04:39:03.636Z,2.20
2023-02-25T04:41:35.852Z,2.20
2023-02-25T04:44:04.969Z,1.90
2023-02-25T04:46:34.117Z,1.77
2023-02-25T04:49:02.478Z,2.10
2023-02-25T04:51:30.613Z,2.20
2023-02-25T04:53:59.039Z,2.17
2023-02-25T04:56:27.580Z,2.00
2023-02-25T04:58:58.298Z,1.60
2023-02-25T05:01:26.412Z,1.43
2023-02-25T05:03:58.243Z,2.47
2023-02-25T05:06:26.737Z,1.63
2023-02-25T05:08:54.883Z,1.80
2023-02-25T05:11:22.981Z,1.87
2023-02-25T05:13:51.075Z,2.03
2023-02-25T05:16:21.060Z,1.93
2023-02-25T05:18:49.553Z,1.83
2023-02-25T05:21:20.739Z,1.93
2023-02-25T05:23:50.821Z,1.60
2023-02-25T05:26:22.713Z,1.27
2023-02-25T05:28:51.624Z,1.33
2023-02-25T05:31:23.085Z,1.50
2023-02-25T05:33:51.546Z,1.40
2023-02-25T05:36:19.782Z,1.30
2023-02-25T05:38:48.343Z,1.87
2023-02-25T05:41:17.029Z,1.50
2023-02-25T05:43:45.936Z,1.47
2023-02-25T05:46:14.865Z,1.70
2023-02-25T05:48:46.697Z,1.50
2023-02-25T05:51:16.833Z,1.93
2023-02-25T05:53:45.168Z,1.77
2023-02-25T05:56:16.100Z,1.63
2023-02-25T05:58:46.671Z,1.40
2023-02-25T06:01:16.475Z,1.80
2023-02-25T06:03:47.716Z,1.80
2023-02-25T06:06:17.774Z,2.20
2023-02-25T06:08:45.992Z,2.17
2023-02-25T06:11:19.754Z,2.10
2023-02-25T06:13:49.327Z,1.73
2023-02-25T06:16:17.995Z,1.57
2023-02-25T06:18:47.751Z,1.57
2023-02-25T06:21:16.743Z,1.53
2023-02-25T06:23:45.811Z,1.90
2023-02-25T06:26:15.891Z,1.60
2023-02-25T06:28:44.326Z,2.03
2023-02-25T06:31:14.535Z,1.73
2023-02-25T06:33:42.740Z,2.60
2023-02-25T06:36:12.678Z,1.53
2023-02-25T06:38:41.127Z,1.43
2023-02-25T06:41:10.160Z,1.53
2023-02-25T06:43:39.141Z,1.40
2023-02-25T06:46:08.970Z,1.53
2023-02-25T06:48:37.622Z,1.90
2023-02-25T06:51:09.312Z,1.10
2023-02-25T06:53:39.051Z,1.67
2023-02-25T06:56:08.706Z,2.00
2023-02-25T06:58:37.499Z,1.50
2023-02-25T07:01:07.853Z,1.60
2023-02-25T07:03:36.145Z,1.80
2023-02-25T07:06:04.695Z,2.03
2023-02-25T07:08:33.134Z,2.20
2023-02-25T07:11:15.626Z,2.57
2023-02-25T07:13:44.450Z,2.90
2023-02-25T07:16:16.873Z,2.27
2023-02-25T07:18:45.378Z,2.00
2023-02-25T07:21:14.573Z,2.67
2023-02-25T07:23:43.510Z,2.23
2023-02-25T07:26:14.625Z,1.87
2023-02-25T07:28:43.350Z,1.90
2023-02-25T07:31:13.129Z,2.00
2023-02-25T07:33:42.397Z,1.97
2023-02-25T07:36:11.946Z,2.40
2023-02-25T07:38:40.410Z,1.60
2023-02-25T07:41:10.877Z,2.00
2023-02-25T07:43:41.621Z,2.07
2023-02-25T07:46:10.404Z,1.90
2023-02-25T07:48:41.195Z,2.53
2023-02-25T07:51:12.270Z,2.70
2023-02-25T07:53:41.139Z,2.17
2023-02-25T07:56:09.908Z,2.10
2023-02-25T07:58:39.257Z,1.63
2023-02-25T08:01:13.224Z,1.80
2023-02-25T08:03:42.140Z,2.27
2023-02-25T08:06:10.453Z,2.03
2023-02-25T08:08:38.665Z,1.50
2023-02-25T08:11:07.721Z,1.60
2023-02-25T08:13:35.918Z,1.90
2023-02-25T08:16:05.813Z,1.80
2023-02-25T08:18:35.367Z,1.80
2023-02-25T08:21:04.683Z,2.27
2023-02-25T08:23:33.022Z,1.43
2023-02-25T08:26:01.402Z,1.40
2023-02-25T08:28:34.384Z,1.60
2023-02-25T08:31:05.624Z,1.70
2023-02-25T08:33:35.112Z,2.43
2023-02-25T08:36:11.240Z,1.50
2023-02-25T08:38:40.217Z,1.90
2023-02-25T08:41:09.789Z,1.60
2023-02-25T08:43:38.339Z,2.10
2023-02-25T08:46:07.624Z,1.40
2023-02-25T08:48:38.336Z,1.53
2023-02-25T08:51:08.515Z,1.60
2023-02-25T08:53:38.645Z,1.60
2023-02-25T08:56:07.379Z,1.50
2023-02-25T08:58:36.155Z,1.60
2023-02-25T09:01:09.166Z,1.53
2023-02-25T09:03:38.659Z,1.40
2023-02-25T09:06:07.235Z,1.40
2023-02-25T09:08:35.344Z,1.30
2023-02-25T09:11:06.674Z,1.50
2023-02-25T09:13:34.947Z,1.10
2023-02-25T09:16:03.446Z,1.47
2023-02-25T09:18:32.115Z,1.23
2023-02-25T09:21:01.518Z,1.50
2023-02-25T09:23:29.701Z,1.17
2023-02-25T09:25:57.874Z,1.40
2023-02-25T09:28:26.072Z,1.50
2023-02-25T09:30:56.016Z,1.20
2023-02-25T09:33:24.266Z,0.90
2023-02-25T09:35:58.319Z,0.87
2023-02-25T09:38:27.812Z,1.23
2023-02-25T09:40:55.879Z,0.80
2023-02-25T09:43:28.155Z,1.10
2023-02-25T09:46:04.256Z,1.23
2023-02-25T09:48:35.672Z,1.27
2023-02-25T09:51:13.162Z,1.13
2023-02-25T09:53:50.423Z,1.20
2023-02-25T09:56:24.259Z,1.30
2023-02-25T09:58:56.192Z,1.00
2023-02-25T10:01:34.277Z,1.10
2023-02-25T10:04:09.369Z,0.97
2023-02-25T10:06:39.916Z,1.20
2023-02-25T10:09:23.135Z,1.57
2023-02-25T10:11:54.683Z,1.00
2023-02-25T10:14:38.615Z,1.10
2023-02-25T10:17:13.651Z,1.10
2023-02-25T10:20:00.121Z,0.80
2023-02-25T10:22:40.821Z,1.30
2023-02-25T10:25:15.829Z,1.00
2023-02-25T10:27:49.181Z,1.40
2023-02-25T10:30:21.221Z,1.17
2023-02-25T10:32:50.070Z,1.60
2023-02-25T10:35:24.960Z,1.70
2023-02-25T10:37:53.803Z,1.20
2023-02-25T10:40:27.735Z,1.07
2023-02-25T10:43:00.307Z,2.90
2023-02-25T10:45:30.456Z,1.37
2023-02-25T10:48:06.831Z,1.23
2023-02-25T10:50:45.608Z,1.40
2023-02-25T10:53:16.599Z,1.10
2023-02-25T10:55:55.006Z,0.90
2023-02-25T10:58:31.655Z,1.00
2023-02-25T11:01:04.290Z,1.10
2023-02-25T11:03:35.154Z,1.00
2023-02-25T11:06:18.740Z,1.33
2023-02-25T11:08:47.292Z,1.73
2023-02-25T11:11:19.570Z,1.80
2023-02-25T11:13:56.350Z,1.60
2023-02-25T11:16:24.655Z,0.83
2023-02-25T11:18:55.351Z,1.13
2023-02-25T11:21:36.139Z,1.13
2023-02-25T11:24:09.859Z,1.97
2023-02-25T11:26:44.002Z,1.60
2023-02-25T11:29:15.899Z,1.30
2023-02-25T11:31:44.988Z,1.47
2023-02-25T11:34:19.733Z,1.17
2023-02-25T11:36:50.860Z,1.30
2023-02-25T11:39:21.675Z,1.40
2023-02-25T11:41:52.908Z,1.20
2023-02-25T11:44:32.397Z,1.30
2023-02-25T11:47:05.592Z,1.57
2023-02-25T11:50:07.420Z,1.33
2023-02-25T11:52:42.239Z,0.93
2023-02-25T11:55:22.149Z,1.30
2023-02-25T11:58:03.832Z,1.40
2023-02-25T12:00:39.787Z,1.33
2023-02-25T12:03:24.980Z,1.30
2023-02-25T12:06:07.562Z,1.13
2023-02-25T12:08:44.386Z,1.00
2023-02-25T12:12:02.792Z,1.40
2023-02-25T12:15:04.157Z,1.50
2023-02-25T12:18:08.251Z,1.40
2023-02-25T12:21:19.338Z,1.30
2023-02-25T12:24:28.932Z,1.30
2023-02-25T12:27:18.758Z,1.57
2023-02-25T12:30:08.670Z,1.50
2023-02-25T12:32:52.884Z,1.53
2023-02-25T12:35:38.646Z,1.20
2023-02-25T12:38:52.630Z,1.63
2023-02-25T12:41:34.875Z,1.37
2023-02-25T12:44:20.542Z,1.60
2023-02-25T12:47:17.642Z,1.13
2023-02-25T12:50:08.178Z,1.40
2023-02-25T12:52:56.949Z,1.57
2023-02-25T12:55:58.322Z,1.87
2023-02-25T12:59:06.343Z,1.90
2023-02-25T13:02:03.817Z,1.60
2023-02-25T13:04:49.926Z,1.57
2023-02-25T13:07:52.018Z,1.57
2023-02-25T13:10:51.653Z,1.70
2023-02-25T13:13:42.358Z,1.97
2023-02-25T13:16:26.583Z,1.60
2023-02-25T13:19:21.399Z,1.67
2023-02-25T13:22:00.198Z,1.93
2023-02-25T13:24:48.984Z,1.97
2023-02-25T13:27:49.363Z,1.93
2023-02-25T13:30:32.184Z,1.30
2023-02-25T13:33:30.231Z,1.00
2023-02-25T13:36:09.794Z,1.60
2023-02-25T13:39:01.297Z,1.47
2023-02-25T13:41:42.810Z,1.70
2023-02-25T13:44:32.106Z,1.30
2023-02-25T13:47:24.456Z,1.70
2023-02-25T13:50:16.864Z,1.27
2023-02-25T13:53:02.145Z,1.40
2023-02-25T13:55:55.112Z,1.43
2023-02-25T13:58:54.755Z,1.33
2023-02-25T14:01:38.944Z,1.47
2023-02-25T14:04:49.842Z,1.70
2023-02-25T14:07:46.074Z,1.30
2023-02-25T14:10:26.942Z,1.50
2023-02-25T14:13:11.187Z,1.73
2023-02-25T14:15:52.955Z,1.70
2023-02-25T14:18:48.894Z,1.80
2023-02-25T14:21:44.911Z,1.47
2023-02-25T14:24:20.110Z,2.00
2023-02-25T14:27:00.936Z,1.80
2023-02-25T14:29:38.962Z,1.93
2023-02-25T14:32:28.695Z,1.87
2023-02-25T14:35:14.952Z,2.03
2023-02-25T14:37:51.619Z,1.97
2023-02-25T14:40:30.071Z,2.00
2023-02-25T14:43:18.150Z,2.20
2023-02-25T14:45:52.289Z,2.00
2023-02-25T14:48:26.606Z,2.20
2023-02-25T14:51:07.716Z,1.90
2023-02-25T14:54:03.910Z,1.90
2023-02-25T14:56:48.995Z,1.90
2023-02-25T14:59:51.895Z,2.67
2023-02-25T15:02:33.460Z,1.97
2023-02-25T15:05:31.462Z,2.80
2023-02-25T15:08:23.449Z,1.57
2023-02-25T15:11:13.587Z,1.67
2023-02-25T15:14:11.685Z,1.50
2023-02-25T15:17:13.552Z,2.13
2023-02-25T15:20:14.454Z,1.80
2023-02-25T15:22:55.123Z,1.70
2023-02-25T15:25:44.132Z,1.83
2023-02-25T15:28:38.784Z,1.90
2023-02-25T15:31:38.936Z,1.40
2023-02-25T15:34:42.603Z,1.80
2023-02-25T15:37:36.019Z,2.00
2023-02-25T15:40:46.068Z,1.97
2023-02-25T15:43:42.428Z,1.83
2023-02-25T15:46:51.998Z,1.93
2023-02-25T15:49:33.528Z,1.50
2023-02-25T15:52:04.715Z,1.53
2023-02-25T15:54:51.629Z,2.03
2023-02-25T15:57:41.820Z,2.47
2023-02-25T16:00:50.225Z,1.97
2023-02-25T16:03:42.291Z,1.50
2023-02-25T16:06:20.076Z,2.10
2023-02-25T16:08:57.407Z,1.83
2023-02-25T16:11:34.911Z,2.20
2023-02-25T16:14:07.253Z,1.67
2023-02-25T16:19:51.579Z,2.20
2023-02-25T16:22:22.665Z,2.63
2023-02-25T16:24:53.352Z,2.40
2023-02-25T16:27:42.546Z,2.10
2023-02-25T16:30:17.101Z,2.50
2023-02-25T16:32:54.803Z,2.43
2023-02-25T16:35:28.189Z,3.00
2023-02-25T16:38:06.416Z,3.10
2023-02-25T16:40:38.154Z,5.37
2023-02-25T16:43:12.690Z,4.60
2023-02-25T16:45:45.414Z,3.93
2023-02-25T16:48:18.730Z,3.50
2023-02-25T16:50:48.969Z,5.17
2023-02-25T16:53:20.333Z,4.07
2023-02-25T16:55:48.711Z,4.40
2023-02-25T16:58:26.988Z,5.10
2023-02-25T17:00:57.349Z,4.30
2023-02-25T17:03:30.885Z,4.57
2023-02-25T17:06:07.767Z,6.67
2023-02-25T17:08:36.655Z,3.83
2023-02-25T17:11:06.780Z,2.83
2023-02-25T17:13:38.636Z,2.30
2023-02-25T17:16:08.426Z,1.90
2023-02-25T17:18:42.733Z,1.90
2023-02-25T17:21:20.746Z,2.63
2023-02-25T17:23:49.319Z,2.10
2023-02-25T17:26:18.422Z,1.83
2023-02-25T17:28:50.318Z,1.90
2023-02-25T17:31:20.649Z,2.83
2023-02-25T17:33:51.811Z,2.50
2023-02-25T17:36:24.677Z,2.67
2023-02-25T17:38:57.414Z,2.60
2023-02-25T17:41:26.534Z,4.23
2023-02-25T17:43:56.103Z,5.00
2023-02-25T17:46:29.360Z,3.87
2023-02-25T17:48:59.607Z,3.10
2023-02-25T17:51:33.732Z,4.07
2023-02-25T17:54:06.830Z,4.10
2023-02-25T17:56:36.376Z,3.53
2023-02-25T17:59:08.022Z,2.80
2023-02-25T18:01:54.332Z,21.67
2023-02-25T18:04:25.410Z,2.30
2023-02-25T18:06:55.518Z,2.07
2023-02-25T18:09:37.940Z,2.50
2023-02-25T18:12:09.280Z,2.63
2023-02-25T18:14:41.005Z,2.60
2023-02-25T18:17:22.724Z,3.40
2023-02-25T18:19:51.489Z,2.70
2023-02-25T18:22:33.925Z,2.77
2023-02-25T18:25:03.717Z,2.30
2023-02-25T18:27:32.895Z,1.60
2023-02-25T18:30:18.086Z,2.67
2023-02-25T18:32:47.137Z,2.80
2023-02-25T18:35:16.167Z,2.30
2023-02-25T18:37:45.632Z,2.63
2023-02-25T18:40:18.703Z,2.47
2023-02-25T18:42:46.885Z,2.40
2023-02-25T18:45:21.111Z,3.00
2023-02-25T18:47:49.720Z,3.60
2023-02-25T18:50:18.746Z,3.30
2023-02-25T18:52:47.334Z,3.67
2023-02-25T18:55:18.527Z,5.37
2023-02-25T18:57:47.052Z,3.50
2023-02-25T19:00:20.512Z,4.13
2023-02-25T19:02:51.290Z,4.30
2023-02-25T19:05:21.269Z,4.63
2023-02-25T19:07:49.878Z,5.80
2023-02-25T19:10:19.774Z,6.07
2023-02-25T19:12:50.541Z,6.07
2023-02-25T19:15:22.499Z,5.70
2023-02-25T19:17:50.765Z,7.13
2023-02-25T19:20:20.955Z,9.17
2023-02-25T19:22:51.312Z,5.20
2023-02-25T19:25:22.232Z,4.90
2023-02-25T19:27:50.572Z,5.43
2023-02-25T19:30:21.942Z,4.50
2023-02-25T19:32:50.016Z,4.20
2023-02-25T19:35:18.500Z,4.97
2023-02-25T19:37:46.613Z,4.10
2023-02-25T19:40:16.765Z,4.93
2023-02-25T19:42:45.877Z,5.00
2023-02-25T19:45:16.979Z,5.30
2023-02-25T19:47:46.795Z,6.70
2023-02-25T19:50:16.427Z,6.50
2023-02-25T19:52:45.085Z,8.90
2023-02-25T19:55:14.306Z,7.10
2023-02-25T19:57:43.666Z,7.70
2023-02-25T20:00:14.913Z,6.40
2023-02-25T20:02:43.412Z,6.83
2023-02-25T20:05:14.539Z,5.87
2023-02-25T20:07:43.400Z,6.33
2023-02-25T20:10:13.763Z,6.40
2023-02-25T20:12:43.170Z,6.43
2023-02-25T20:15:13.350Z,6.70
2023-02-25T20:17:43.210Z,6.90
2023-02-25T20:20:15.269Z,6.33
2023-02-25T20:22:43.453Z,7.30
2023-02-25T20:25:13.307Z,7.07
2023-02-25T20:27:43.462Z,5.30
2023-02-25T20:30:14.389Z,4.50
2023-02-25T20:32:43.466Z,3.20
2023-02-25T20:35:17.413Z,2.50
2023-02-25T20:37:53.461Z,3.10
2023-02-25T20:40:21.728Z,2.40
2023-02-25T20:42:50.056Z,2.43
2023-02-25T20:45:18.823Z,2.00
2023-02-25T20:47:47.285Z,1.93
2023-02-25T20:50:21.458Z,2.03
2023-02-25T20:52:49.672Z,2.00
2023-02-25T20:55:17.844Z,1.63
2023-02-25T20:57:45.912Z,2.00
2023-02-25T21:00:16.349Z,2.17
2023-02-25T21:02:44.636Z,2.40
2023-02-25T21:05:13.167Z,2.50
2023-02-25T21:07:42.540Z,3.20
2023-02-25T21:10:11.901Z,2.67
2023-02-25T21:12:40.517Z,3.30
2023-02-25T21:15:09.820Z,2.47
2023-02-25T21:17:38.010Z,2.40
2023-02-25T21:20:07.283Z,2.47
2023-02-25T21:22:35.314Z,2.50
2023-02-25T21:25:07.779Z,3.80
2023-02-25T21:27:35.872Z,2.17
2023-02-25T21:30:04.235Z,2.50
2023-02-25T21:32:32.266Z,2.70
2023-02-25T21:35:00.325Z,2.20
2023-02-25T21:37:28.444Z,2.23
2023-02-25T21:39:56.470Z,2.37
2023-02-25T21:42:25.994Z,2.63
2023-02-25T21:44:54.498Z,3.10
2023-02-25T21:47:22.672Z,2.67
2023-02-25T21:49:51.401Z,2.63
2023-02-25T21:52:19.478Z,3.60
2023-02-25T21:54:47.529Z,2.97
2023-02-25T21:57:15.559Z,2.97
2023-02-25T21:59:44.977Z,2.70
2023-02-25T22:02:13.029Z,2.90
2023-02-25T22:04:41.207Z,2.57
2023-02-25T22:07:09.260Z,3.60
2023-02-25T22:09:37.273Z,4.23
2023-02-25T22:12:05.736Z,4.23
2023-02-25T22:14:33.932Z,3.10
2023-02-25T22:17:03.474Z,3.40
2023-02-25T22:19:31.567Z,3.90
2023-02-25T22:21:59.706Z,3.30
2023-02-25T22:24:27.752Z,3.10
2023-02-25T22:26:55.783Z,2.93
2023-02-25T22:29:24.190Z,3.67
2023-02-25T22:31:52.356Z,3.40
2023-02-25T22:34:21.910Z,3.60
2023-02-25T22:36:49.952Z,4.30
2023-02-25T22:39:17.987Z,4.03
2023-02-25T22:41:46.114Z,3.20
2023-02-25T22:44:14.168Z,2.53
2023-02-25T22:46:42.518Z,2.00
2023-02-25T22:49:12.531Z,2.20
2023-02-25T22:51:44.645Z,2.33
2023-02-25T22:54:14.730Z,2.20
2023-02-25T22:56:43.586Z,2.23
2023-02-25T22:59:12.394Z,2.80
2023-02-25T23:01:41.109Z,2.90
2023-02-25T23:04:09.169Z,3.20
2023-02-25T23:06:43.835Z,2.83
2023-02-25T23:09:14.224Z,2.87
2023-02-25T23:11:43.831Z,2.50
2023-02-25T23:14:12.221Z,2.80
2023-02-25T23:16:42.598Z,2.70
2023-02-25T23:19:12.918Z,2.20
2023-02-25T23:21:41.013Z,1.90
2023-02-25T23:24:15.351Z,2.23
2023-02-25T23:26:46.326Z,2.17
2023-02-25T23:29:14.998Z,2.30
2023-02-25T23:31:45.415Z,2.57
2023-02-25T23:34:18.025Z,2.30
2023-02-25T23:36:46.325Z,2.30
2023-02-25T23:39:15.755Z,2.10
2023-02-25T23:41:45.527Z,1.80
2023-02-25T23:44:14.583Z,2.13
2023-02-25T23:46:44.944Z,2.03
2023-02-25T23:49:15.773Z,1.93
2023-02-25T23:51:45.397Z,1.93
2023-02-25T23:54:16.153Z,1.60
2023-02-25T23:56:45.662Z,1.80
2023-02-25T23:59:14.081Z,2.93
